sensor_id;sensor_type;location;lat;lon;timestamp;temperature;humidity
2106;DHT22;1059;52.548;13.408;2023-06-19T00:01:20;20.40;99.90
2106;DHT22;1059;52.548;13.408;2023-06-19T00:03:50;20.40;99.90
2106;DHT22;1059;52.548;13.408;2023-06-19T00:06:17;20.30;99.90
2106;DHT22;1059;52.548;13.408;2023-06-19T00:08:44;20.30;99.90
2106;DHT22;1059;52.548;13.408;2023-06-19T00:11:12;20.30;99.90
2106;DHT22;1059;52.548;13.408;2023-06-19T00:13:39;20.30;99.90
2106;DHT22;1059;52.548;13.408;2023-06-19T00:16:05;20.20;99.90
2106;DHT22;1059;52.548;13.408;2023-06-19T00:18:32;20.30;99.90
2106;DHT22;1059;52.548;13.408;2023-06-19T00:21:05;20.20;99.90
2106;DHT22;1059;52.548;13.408;2023-06-19T00:23:32;20.20;99.90
2106;DHT22;1059;52.548;13.408;2023-06-19T00:25:59;20.20;99.90
2106;DHT22;1059;52.548;13.408;2023-06-19T00:28:28;20.20;99.90
2106;DHT22;1059;52.548;13.408;2023-06-19T00:30:55;20.20;99.90
2106;DHT22;1059;52.548;13.408;2023-06-19T00:33:22;20.20;99.90
2106;DHT22;1059;52.548;13.408;2023-06-19T00:35:50;20.20;99.90
2106;DHT22;1059;52.548;13.408;2023-06-19T00:38:17;20.20;99.90
2106;DHT22;1059;52.548;13.408;2023-06-19T00:40:44;20.10;99.90
2106;DHT22;1059;52.548;13.408;2023-06-19T00:43:11;20.10;99.90
2106;DHT22;1059;52.548;13.408;2023-06-19T00:45:40;20.10;99.90
2106;DHT22;1059;52.548;13.408;2023-06-19T00:48:07;20.10;99.90
2106;DHT22;1059;52.548;13.408;2023-06-19T00:50:34;20.10;99.90
2106;DHT22;1059;52.548;13.408;2023-06-19T00:53:03;20.10;99.90
2106;DHT22;1059;52.548;13.408;2023-06-19T00:55:31;20.10;99.90
2106;DHT22;1059;52.548;13.408;2023-06-19T00:57:59;20.10;99.90
2106;DHT22;1059;52.548;13.408;2023-06-19T01:00:26;20.20;99.90
2106;DHT22;1059;52.548;13.408;2023-06-19T01:02:55;20.10;99.90
2106;DHT22;1059;52.548;13.408;2023-06-19T01:05:22;20.10;99.90
2106;DHT22;1059;52.548;13.408;2023-06-19T01:07:55;20.10;99.90
2106;DHT22;1059;52.548;13.408;2023-06-19T01:10:28;20.10;99.90
2106;DHT22;1059;52.548;13.408;2023-06-19T01:13:00;20.10;99.90
2106;DHT22;1059;52.548;13.408;2023-06-19T01:15:28;20.10;99.90
2106;DHT22;1059;52.548;13.408;2023-06-19T01:17:59;20.10;99.90
2106;DHT22;1059;52.548;13.408;2023-06-19T01:20:27;20.10;99.90
2106;DHT22;1059;52.548;13.408;2023-06-19T01:22:56;20.00;99.90
2106;DHT22;1059;52.548;13.408;2023-06-19T01:25:23;20.00;99.90
2106;DHT22;1059;52.548;13.408;2023-06-19T01:27:50;19.90;99.90
2106;DHT22;1059;52.548;13.408;2023-06-19T01:30:18;19.90;99.90
2106;DHT22;1059;52.548;13.408;2023-06-19T01:32:50;19.90;99.90
2106;DHT22;1059;52.548;13.408;2023-06-19T01:35:23;19.90;99.90
2106;DHT22;1059;52.548;13.408;2023-06-19T01:37:52;19.80;99.90
2106;DHT22;1059;52.548;13.408;2023-06-19T01:40:20;19.90;99.90
2106;DHT22;1059;52.548;13.408;2023-06-19T01:42:52;19.80;99.90
2106;DHT22;1059;52.548;13.408;2023-06-19T01:45:20;19.80;99.90
2106;DHT22;1059;52.548;13.408;2023-06-19T01:47:50;19.80;99.90
2106;DHT22;1059;52.548;13.408;2023-06-19T01:50:17;19.80;99.90
2106;DHT22;1059;52.548;13.408;2023-06-19T01:52:44;19.80;99.90
2106;DHT22;1059;52.548;13.408;2023-06-19T01:55:11;19.80;99.90
2106;DHT22;1059;52.548;13.408;2023-06-19T01:57:40;19.70;99.90
2106;DHT22;1059;52.548;13.408;2023-06-19T02:00:07;19.70;99.90
2106;DHT22;1059;52.548;13.408;2023-06-19T02:02:35;19.70;99.90
2106;DHT22;1059;52.548;13.408;2023-06-19T02:05:03;19.70;99.90
2106;DHT22;1059;52.548;13.408;2023-06-19T02:07:30;19.70;99.90
2106;DHT22;1059;52.548;13.408;2023-06-19T02:09:57;19.70;99.90
2106;DHT22;1059;52.548;13.408;2023-06-19T02:12:24;19.70;99.90
2106;DHT22;1059;52.548;13.408;2023-06-19T02:14:52;19.70;99.90
2106;DHT22;1059;52.548;13.408;2023-06-19T02:17:19;19.70;99.90
2106;DHT22;1059;52.548;13.408;2023-06-19T02:19:46;19.80;99.90
2106;DHT22;1059;52.548;13.408;2023-06-19T02:22:12;19.70;99.90
2106;DHT22;1059;52.548;13.408;2023-06-19T02:24:39;19.70;99.90
2106;DHT22;1059;52.548;13.408;2023-06-19T02:27:06;19.70;99.90
2106;DHT22;1059;52.548;13.408;2023-06-19T02:29:33;19.70;99.90
2106;DHT22;1059;52.548;13.408;2023-06-19T02:32:01;19.70;99.90
2106;DHT22;1059;52.548;13.408;2023-06-19T02:34:29;19.70;99.90
2106;DHT22;1059;52.548;13.408;2023-06-19T02:36:56;19.70;99.90
2106;DHT22;1059;52.548;13.408;2023-06-19T02:39:23;19.70;99.90
2106;DHT22;1059;52.548;13.408;2023-06-19T02:41:50;19.70;99.90
2106;DHT22;1059;52.548;13.408;2023-06-19T02:44:16;19.70;99.90
2106;DHT22;1059;52.548;13.408;2023-06-19T02:46:43;19.70;99.90
2106;DHT22;1059;52.548;13.408;2023-06-19T02:49:11;19.70;99.90
2106;DHT22;1059;52.548;13.408;2023-06-19T02:51:38;19.70;99.90
2106;DHT22;1059;52.548;13.408;2023-06-19T02:54:05;19.80;99.90
2106;DHT22;1059;52.548;13.408;2023-06-19T02:56:32;19.70;99.90
2106;DHT22;1059;52.548;13.408;2023-06-19T02:58:59;19.70;99.90
2106;DHT22;1059;52.548;13.408;2023-06-19T03:01:26;19.70;99.90
2106;DHT22;1059;52.548;13.408;2023-06-19T03:03:53;19.70;99.90
2106;DHT22;1059;52.548;13.408;2023-06-19T03:06:21;19.70;99.90
2106;DHT22;1059;52.548;13.408;2023-06-19T03:08:48;19.70;99.90
2106;DHT22;1059;52.548;13.408;2023-06-19T03:11:15;19.70;99.90
2106;DHT22;1059;52.548;13.408;2023-06-19T03:13:49;19.70;99.90
2106;DHT22;1059;52.548;13.408;2023-06-19T03:16:16;19.70;99.90
2106;DHT22;1059;52.548;13.408;2023-06-19T03:18:46;19.70;99.90
2106;DHT22;1059;52.548;13.408;2023-06-19T03:21:14;19.70;99.90
2106;DHT22;1059;52.548;13.408;2023-06-19T03:23:42;19.70;99.90
2106;DHT22;1059;52.548;13.408;2023-06-19T03:26:09;19.70;99.90
2106;DHT22;1059;52.548;13.408;2023-06-19T03:28:36;19.70;99.90
2106;DHT22;1059;52.548;13.408;2023-06-19T03:31:03;19.70;99.90
2106;DHT22;1059;52.548;13.408;2023-06-19T03:33:30;19.70;99.90
2106;DHT22;1059;52.548;13.408;2023-06-19T03:35:57;19.70;99.90
2106;DHT22;1059;52.548;13.408;2023-06-19T03:38:24;19.70;99.90
2106;DHT22;1059;52.548;13.408;2023-06-19T03:40:52;19.70;99.90
2106;DHT22;1059;52.548;13.408;2023-06-19T03:43:19;19.70;99.90
2106;DHT22;1059;52.548;13.408;2023-06-19T03:45:45;19.80;99.90
2106;DHT22;1059;52.548;13.408;2023-06-19T03:48:15;19.80;99.90
2106;DHT22;1059;52.548;13.408;2023-06-19T03:50:42;19.80;99.90
2106;DHT22;1059;52.548;13.408;2023-06-19T03:53:09;19.80;99.90
2106;DHT22;1059;52.548;13.408;2023-06-19T03:55:36;19.80;99.90
2106;DHT22;1059;52.548;13.408;2023-06-19T03:58:04;19.90;99.90
2106;DHT22;1059;52.548;13.408;2023-06-19T04:00:31;19.90;99.90
2106;DHT22;1059;52.548;13.408;2023-06-19T04:02:58;19.90;99.90
2106;DHT22;1059;52.548;13.408;2023-06-19T04:05:25;19.90;99.90
2106;DHT22;1059;52.548;13.408;2023-06-19T04:07:52;19.90;99.90
2106;DHT22;1059;52.548;13.408;2023-06-19T04:10:19;19.90;99.90
2106;DHT22;1059;52.548;13.408;2023-06-19T04:12:46;19.90;99.90
2106;DHT22;1059;52.548;13.408;2023-06-19T04:15:15;20.00;99.90
2106;DHT22;1059;52.548;13.408;2023-06-19T04:17:41;20.00;99.90
2106;DHT22;1059;52.548;13.408;2023-06-19T04:20:09;20.00;99.90
2106;DHT22;1059;52.548;13.408;2023-06-19T04:22:37;20.10;99.90
2106;DHT22;1059;52.548;13.408;2023-06-19T04:25:05;20.10;99.90
2106;DHT22;1059;52.548;13.408;2023-06-19T04:27:32;20.10;99.90
2106;DHT22;1059;52.548;13.408;2023-06-19T04:30:00;20.10;99.90
2106;DHT22;1059;52.548;13.408;2023-06-19T04:32:28;20.10;99.90
2106;DHT22;1059;52.548;13.408;2023-06-19T04:34:55;20.10;99.90
2106;DHT22;1059;52.548;13.408;2023-06-19T04:37:25;20.20;99.90
2106;DHT22;1059;52.548;13.408;2023-06-19T04:39:52;20.20;99.90
2106;DHT22;1059;52.548;13.408;2023-06-19T04:42:19;20.20;99.90
2106;DHT22;1059;52.548;13.408;2023-06-19T04:44:46;20.20;99.90
2106;DHT22;1059;52.548;13.408;2023-06-19T04:47:13;20.20;99.90
2106;DHT22;1059;52.548;13.408;2023-06-19T04:49:42;20.20;99.90
2106;DHT22;1059;52.548;13.408;2023-06-19T04:52:09;20.10;99.90
2106;DHT22;1059;52.548;13.408;2023-06-19T04:54:36;20.10;99.90
2106;DHT22;1059;52.548;13.408;2023-06-19T04:57:04;20.10;99.90
2106;DHT22;1059;52.548;13.408;2023-06-19T04:59:32;20.10;99.90
2106;DHT22;1059;52.548;13.408;2023-06-19T05:01:59;20.10;99.90
2106;DHT22;1059;52.548;13.408;2023-06-19T05:04:26;20.10;99.90
2106;DHT22;1059;52.548;13.408;2023-06-19T05:06:54;20.10;99.90
2106;DHT22;1059;52.548;13.408;2023-06-19T05:09:21;20.10;99.90
2106;DHT22;1059;52.548;13.408;2023-06-19T05:11:47;20.10;99.90
2106;DHT22;1059;52.548;13.408;2023-06-19T05:14:14;20.10;99.90
2106;DHT22;1059;52.548;13.408;2023-06-19T05:16:41;20.10;99.90
2106;DHT22;1059;52.548;13.408;2023-06-19T05:19:08;20.10;99.90
2106;DHT22;1059;52.548;13.408;2023-06-19T05:21:35;20.10;99.90
2106;DHT22;1059;52.548;13.408;2023-06-19T05:24:03;20.20;99.90
2106;DHT22;1059;52.548;13.408;2023-06-19T05:26:30;20.20;99.90
2106;DHT22;1059;52.548;13.408;2023-06-19T05:29:00;20.20;99.90
2106;DHT22;1059;52.548;13.408;2023-06-19T05:31:27;20.30;99.90
2106;DHT22;1059;52.548;13.408;2023-06-19T05:33:54;20.30;99.90
2106;DHT22;1059;52.548;13.408;2023-06-19T05:36:21;20.30;99.90
2106;DHT22;1059;52.548;13.408;2023-06-19T05:38:48;20.40;99.90
2106;DHT22;1059;52.548;13.408;2023-06-19T05:41:19;20.50;99.90
2106;DHT22;1059;52.548;13.408;2023-06-19T05:43:46;20.50;99.90
2106;DHT22;1059;52.548;13.408;2023-06-19T05:46:16;20.50;99.90
2106;DHT22;1059;52.548;13.408;2023-06-19T05:48:42;20.60;99.90
2106;DHT22;1059;52.548;13.408;2023-06-19T05:51:09;20.60;99.90
2106;DHT22;1059;52.548;13.408;2023-06-19T05:53:39;20.60;99.90
2106;DHT22;1059;52.548;13.408;2023-06-19T05:56:06;20.60;99.90
2106;DHT22;1059;52.548;13.408;2023-06-19T05:58:34;20.60;99.90
2106;DHT22;1059;52.548;13.408;2023-06-19T06:01:01;20.60;99.90
2106;DHT22;1059;52.548;13.408;2023-06-19T06:03:28;20.70;99.90
2106;DHT22;1059;52.548;13.408;2023-06-19T06:05:57;20.70;99.90
2106;DHT22;1059;52.548;13.408;2023-06-19T06:08:28;20.80;99.90
2106;DHT22;1059;52.548;13.408;2023-06-19T06:10:55;20.90;99.90
2106;DHT22;1059;52.548;13.408;2023-06-19T06:13:22;20.90;99.90
2106;DHT22;1059;52.548;13.408;2023-06-19T06:15:50;20.90;99.90
2106;DHT22;1059;52.548;13.408;2023-06-19T06:18:17;21.00;99.90
2106;DHT22;1059;52.548;13.408;2023-06-19T06:20:44;21.00;99.90
2106;DHT22;1059;52.548;13.408;2023-06-19T06:23:11;21.00;99.90
2106;DHT22;1059;52.548;13.408;2023-06-19T06:25:37;21.00;99.90
2106;DHT22;1059;52.548;13.408;2023-06-19T06:28:04;21.00;99.90
2106;DHT22;1059;52.548;13.408;2023-06-19T06:30:31;21.00;99.90
2106;DHT22;1059;52.548;13.408;2023-06-19T06:32:59;21.00;99.90
2106;DHT22;1059;52.548;13.408;2023-06-19T06:35:26;21.00;99.90
2106;DHT22;1059;52.548;13.408;2023-06-19T06:37:54;21.00;99.90
2106;DHT22;1059;52.548;13.408;2023-06-19T06:40:20;21.00;99.90
2106;DHT22;1059;52.548;13.408;2023-06-19T06:42:47;21.10;99.90
2106;DHT22;1059;52.548;13.408;2023-06-19T06:45:19;21.10;99.90
2106;DHT22;1059;52.548;13.408;2023-06-19T06:47:47;21.10;99.90
2106;DHT22;1059;52.548;13.408;2023-06-19T06:50:15;21.10;99.90
2106;DHT22;1059;52.548;13.408;2023-06-19T06:52:42;21.20;99.90
2106;DHT22;1059;52.548;13.408;2023-06-19T06:55:09;21.20;99.90
2106;DHT22;1059;52.548;13.408;2023-06-19T06:57:36;21.30;99.90
2106;DHT22;1059;52.548;13.408;2023-06-19T07:00:05;21.30;99.90
2106;DHT22;1059;52.548;13.408;2023-06-19T07:02:35;21.40;99.90
2106;DHT22;1059;52.548;13.408;2023-06-19T07:05:04;21.40;99.90
2106;DHT22;1059;52.548;13.408;2023-06-19T07:07:32;21.40;99.90
2106;DHT22;1059;52.548;13.408;2023-06-19T07:10:02;21.40;99.90
2106;DHT22;1059;52.548;13.408;2023-06-19T07:12:29;21.40;99.90
2106;DHT22;1059;52.548;13.408;2023-06-19T07:14:56;21.50;99.90
2106;DHT22;1059;52.548;13.408;2023-06-19T07:17:24;21.60;99.90
2106;DHT22;1059;52.548;13.408;2023-06-19T07:19:51;21.60;99.90
2106;DHT22;1059;52.548;13.408;2023-06-19T07:22:18;21.70;99.90
2106;DHT22;1059;52.548;13.408;2023-06-19T07:24:46;21.80;99.90
2106;DHT22;1059;52.548;13.408;2023-06-19T07:27:13;21.80;99.90
2106;DHT22;1059;52.548;13.408;2023-06-19T07:29:40;21.90;99.90
2106;DHT22;1059;52.548;13.408;2023-06-19T07:32:07;22.00;99.90
2106;DHT22;1059;52.548;13.408;2023-06-19T07:34:34;22.10;99.90
2106;DHT22;1059;52.548;13.408;2023-06-19T07:37:02;22.20;99.90
2106;DHT22;1059;52.548;13.408;2023-06-19T07:39:28;22.20;99.90
2106;DHT22;1059;52.548;13.408;2023-06-19T07:41:58;22.40;99.90
2106;DHT22;1059;52.548;13.408;2023-06-19T07:44:24;22.40;99.90
2106;DHT22;1059;52.548;13.408;2023-06-19T07:46:54;22.50;99.90
2106;DHT22;1059;52.548;13.408;2023-06-19T07:49:21;22.60;99.90
2106;DHT22;1059;52.548;13.408;2023-06-19T07:51:48;22.60;99.90
2106;DHT22;1059;52.548;13.408;2023-06-19T07:54:18;22.70;99.90
2106;DHT22;1059;52.548;13.408;2023-06-19T07:56:45;22.70;99.90
2106;DHT22;1059;52.548;13.408;2023-06-19T07:59:13;22.70;99.90
2106;DHT22;1059;52.548;13.408;2023-06-19T08:01:40;22.70;99.90
2106;DHT22;1059;52.548;13.408;2023-06-19T08:04:07;22.70;99.90
2106;DHT22;1059;52.548;13.408;2023-06-19T08:06:34;22.70;99.90
2106;DHT22;1059;52.548;13.408;2023-06-19T08:09:01;22.70;99.90
2106;DHT22;1059;52.548;13.408;2023-06-19T08:11:29;22.80;99.90
2106;DHT22;1059;52.548;13.408;2023-06-19T08:13:56;22.80;99.90
2106;DHT22;1059;52.548;13.408;2023-06-19T08:16:25;22.90;99.90
2106;DHT22;1059;52.548;13.408;2023-06-19T08:18:52;22.90;99.90
2106;DHT22;1059;52.548;13.408;2023-06-19T08:21:19;23.00;99.90
2106;DHT22;1059;52.548;13.408;2023-06-19T08:23:47;23.00;99.90
2106;DHT22;1059;52.548;13.408;2023-06-19T08:26:13;23.10;99.90
2106;DHT22;1059;52.548;13.408;2023-06-19T08:28:40;23.20;99.90
2106;DHT22;1059;52.548;13.408;2023-06-19T08:31:08;23.20;99.90
2106;DHT22;1059;52.548;13.408;2023-06-19T08:33:36;23.20;99.90
2106;DHT22;1059;52.548;13.408;2023-06-19T08:36:03;23.30;99.90
2106;DHT22;1059;52.548;13.408;2023-06-19T08:38:30;23.30;99.90
2106;DHT22;1059;52.548;13.408;2023-06-19T08:40:57;23.30;99.90
2106;DHT22;1059;52.548;13.408;2023-06-19T08:43:24;23.30;99.90
2106;DHT22;1059;52.548;13.408;2023-06-19T08:46:05;23.30;99.90
2106;DHT22;1059;52.548;13.408;2023-06-19T08:48:36;23.30;99.90
2106;DHT22;1059;52.548;13.408;2023-06-19T08:51:03;23.40;99.90
2106;DHT22;1059;52.548;13.408;2023-06-19T08:53:33;23.40;99.90
2106;DHT22;1059;52.548;13.408;2023-06-19T08:56:00;23.50;99.90
2106;DHT22;1059;52.548;13.408;2023-06-19T08:58:27;23.50;99.90
2106;DHT22;1059;52.548;13.408;2023-06-19T09:00:54;23.60;99.90
2106;DHT22;1059;52.548;13.408;2023-06-19T09:03:21;23.60;99.90
2106;DHT22;1059;52.548;13.408;2023-06-19T09:05:50;23.70;99.90
2106;DHT22;1059;52.548;13.408;2023-06-19T09:08:17;23.70;99.90
2106;DHT22;1059;52.548;13.408;2023-06-19T09:10:57;23.70;99.90
2106;DHT22;1059;52.548;13.408;2023-06-19T09:13:24;23.80;99.90
2106;DHT22;1059;52.548;13.408;2023-06-19T09:16:00;23.80;99.90
2106;DHT22;1059;52.548;13.408;2023-06-19T09:18:29;23.80;99.90
2106;DHT22;1059;52.548;13.408;2023-06-19T09:20:58;23.80;99.90
2106;DHT22;1059;52.548;13.408;2023-06-19T09:23:25;23.90;99.90
2106;DHT22;1059;52.548;13.408;2023-06-19T09:25:53;23.90;99.90
2106;DHT22;1059;52.548;13.408;2023-06-19T09:28:22;24.00;99.90
2106;DHT22;1059;52.548;13.408;2023-06-19T09:30:53;24.00;99.90
2106;DHT22;1059;52.548;13.408;2023-06-19T09:33:20;24.10;99.90
2106;DHT22;1059;52.548;13.408;2023-06-19T09:35:49;24.10;99.90
2106;DHT22;1059;52.548;13.408;2023-06-19T09:38:18;24.10;99.90
2106;DHT22;1059;52.548;13.408;2023-06-19T09:40:48;24.10;99.90
2106;DHT22;1059;52.548;13.408;2023-06-19T09:43:19;24.20;99.90
2106;DHT22;1059;52.548;13.408;2023-06-19T09:45:48;24.20;99.90
2106;DHT22;1059;52.548;13.408;2023-06-19T09:48:20;24.30;99.90
2106;DHT22;1059;52.548;13.408;2023-06-19T09:50:51;24.30;99.90
2106;DHT22;1059;52.548;13.408;2023-06-19T09:53:22;24.40;99.90
2106;DHT22;1059;52.548;13.408;2023-06-19T09:55:50;24.40;99.90
2106;DHT22;1059;52.548;13.408;2023-06-19T09:58:18;24.40;99.90
2106;DHT22;1059;52.548;13.408;2023-06-19T10:00:48;24.50;99.90
2106;DHT22;1059;52.548;13.408;2023-06-19T10:03:16;24.50;99.90
2106;DHT22;1059;52.548;13.408;2023-06-19T10:05:43;24.50;99.90
2106;DHT22;1059;52.548;13.408;2023-06-19T10:08:10;24.60;99.90
2106;DHT22;1059;52.548;13.408;2023-06-19T10:10:46;24.70;99.90
2106;DHT22;1059;52.548;13.408;2023-06-19T10:13:15;24.70;99.90
2106;DHT22;1059;52.548;13.408;2023-06-19T10:15:43;24.80;99.90
2106;DHT22;1059;52.548;13.408;2023-06-19T10:18:14;24.90;99.90
2106;DHT22;1059;52.548;13.408;2023-06-19T10:20:43;25.00;99.90
2106;DHT22;1059;52.548;13.408;2023-06-19T10:23:12;25.10;99.90
2106;DHT22;1059;52.548;13.408;2023-06-19T10:25:45;25.20;99.90
2106;DHT22;1059;52.548;13.408;2023-06-19T10:28:16;25.30;99.90
2106;DHT22;1059;52.548;13.408;2023-06-19T10:30:44;25.40;99.90
2106;DHT22;1059;52.548;13.408;2023-06-19T10:33:11;25.50;99.90
2106;DHT22;1059;52.548;13.408;2023-06-19T10:35:38;25.60;99.90
2106;DHT22;1059;52.548;13.408;2023-06-19T10:38:06;25.60;99.90
2106;DHT22;1059;52.548;13.408;2023-06-19T10:40:37;25.60;99.90
2106;DHT22;1059;52.548;13.408;2023-06-19T10:43:09;25.70;99.90
2106;DHT22;1059;52.548;13.408;2023-06-19T10:45:36;25.70;99.90
2106;DHT22;1059;52.548;13.408;2023-06-19T10:48:04;25.70;99.90
2106;DHT22;1059;52.548;13.408;2023-06-19T10:50:34;25.70;99.90
2106;DHT22;1059;52.548;13.408;2023-06-19T10:53:01;25.70;99.90
2106;DHT22;1059;52.548;13.408;2023-06-19T10:55:28;25.70;99.90
2106;DHT22;1059;52.548;13.408;2023-06-19T10:57:56;25.80;99.90
2106;DHT22;1059;52.548;13.408;2023-06-19T11:00:25;25.80;99.90
2106;DHT22;1059;52.548;13.408;2023-06-19T11:02:52;25.80;99.90
2106;DHT22;1059;52.548;13.408;2023-06-19T11:05:20;25.80;99.90
2106;DHT22;1059;52.548;13.408;2023-06-19T11:07:52;25.80;99.90
2106;DHT22;1059;52.548;13.408;2023-06-19T11:10:20;25.80;99.90
2106;DHT22;1059;52.548;13.408;2023-06-19T11:12:48;25.80;99.90
2106;DHT22;1059;52.548;13.408;2023-06-19T11:15:15;25.90;99.90
2106;DHT22;1059;52.548;13.408;2023-06-19T11:17:43;26.00;99.90
2106;DHT22;1059;52.548;13.408;2023-06-19T11:20:11;26.00;99.90
2106;DHT22;1059;52.548;13.408;2023-06-19T11:22:40;26.10;99.90
2106;DHT22;1059;52.548;13.408;2023-06-19T11:25:08;26.20;99.90
2106;DHT22;1059;52.548;13.408;2023-06-19T11:27:37;26.20;99.90
2106;DHT22;1059;52.548;13.408;2023-06-19T11:30:06;26.20;99.90
2106;DHT22;1059;52.548;13.408;2023-06-19T11:32:34;26.20;99.90
2106;DHT22;1059;52.548;13.408;2023-06-19T11:35:09;26.30;99.90
2106;DHT22;1059;52.548;13.408;2023-06-19T11:37:39;26.40;99.90
2106;DHT22;1059;52.548;13.408;2023-06-19T11:40:10;26.50;99.90
2106;DHT22;1059;52.548;13.408;2023-06-19T11:42:48;26.80;99.90
2106;DHT22;1059;52.548;13.408;2023-06-19T11:45:15;27.30;99.90
2106;DHT22;1059;52.548;13.408;2023-06-19T11:47:44;28.00;99.90
2106;DHT22;1059;52.548;13.408;2023-06-19T11:50:13;28.90;99.90
2106;DHT22;1059;52.548;13.408;2023-06-19T11:52:43;29.40;99.90
2106;DHT22;1059;52.548;13.408;2023-06-19T11:55:10;29.50;99.90
2106;DHT22;1059;52.548;13.408;2023-06-19T11:57:38;29.50;99.90
2106;DHT22;1059;52.548;13.408;2023-06-19T12:00:16;29.50;99.90
2106;DHT22;1059;52.548;13.408;2023-06-19T12:02:44;29.50;99.90
2106;DHT22;1059;52.548;13.408;2023-06-19T12:05:14;29.70;99.90
2106;DHT22;1059;52.548;13.408;2023-06-19T12:07:41;29.80;99.90
2106;DHT22;1059;52.548;13.408;2023-06-19T12:10:09;29.80;98.70
2106;DHT22;1059;52.548;13.408;2023-06-19T12:12:37;29.70;97.90
2106;DHT22;1059;52.548;13.408;2023-06-19T12:15:05;29.70;98.50
2106;DHT22;1059;52.548;13.408;2023-06-19T12:17:33;29.70;98.40
2106;DHT22;1059;52.548;13.408;2023-06-19T12:20:00;29.60;98.70
2106;DHT22;1059;52.548;13.408;2023-06-19T12:22:28;29.60;98.10
2106;DHT22;1059;52.548;13.408;2023-06-19T12:24:55;29.60;95.20
2106;DHT22;1059;52.548;13.408;2023-06-19T12:27:22;29.50;95.50
2106;DHT22;1059;52.548;13.408;2023-06-19T12:29:51;29.50;96.10
2106;DHT22;1059;52.548;13.408;2023-06-19T12:32:18;29.60;94.10
2106;DHT22;1059;52.548;13.408;2023-06-19T12:34:46;29.90;94.00
2106;DHT22;1059;52.548;13.408;2023-06-19T12:37:14;30.40;92.50
2106;DHT22;1059;52.548;13.408;2023-06-19T12:39:47;30.80;90.90
2106;DHT22;1059;52.548;13.408;2023-06-19T12:42:14;31.50;86.70
2106;DHT22;1059;52.548;13.408;2023-06-19T12:44:41;32.20;79.30
2106;DHT22;1059;52.548;13.408;2023-06-19T12:47:10;32.80;71.20
2106;DHT22;1059;52.548;13.408;2023-06-19T12:49:37;33.30;65.20
2106;DHT22;1059;52.548;13.408;2023-06-19T12:52:04;33.40;57.60
2106;DHT22;1059;52.548;13.408;2023-06-19T12:54:31;33.50;54.60
2106;DHT22;1059;52.548;13.408;2023-06-19T12:57:00;33.40;51.20
2106;DHT22;1059;52.548;13.408;2023-06-19T12:59:27;33.40;51.40
2106;DHT22;1059;52.548;13.408;2023-06-19T13:01:54;33.40;49.70
2106;DHT22;1059;52.548;13.408;2023-06-19T13:04:21;33.30;47.30
2106;DHT22;1059;52.548;13.408;2023-06-19T13:06:48;32.80;47.30
2106;DHT22;1059;52.548;13.408;2023-06-19T13:09:15;32.30;49.70
2106;DHT22;1059;52.548;13.408;2023-06-19T13:11:42;31.90;50.70
2106;DHT22;1059;52.548;13.408;2023-06-19T13:14:13;31.60;51.40
2106;DHT22;1059;52.548;13.408;2023-06-19T13:16:40;31.30;52.20
2106;DHT22;1059;52.548;13.408;2023-06-19T13:19:07;31.30;53.10
2106;DHT22;1059;52.548;13.408;2023-06-19T13:21:34;31.80;52.30
2106;DHT22;1059;52.548;13.408;2023-06-19T13:24:02;32.30;50.70
2106;DHT22;1059;52.548;13.408;2023-06-19T13:26:29;32.50;50.60
2106;DHT22;1059;52.548;13.408;2023-06-19T13:28:55;32.70;50.50
2106;DHT22;1059;52.548;13.408;2023-06-19T13:31:25;32.70;49.70
2106;DHT22;1059;52.548;13.408;2023-06-19T13:33:55;32.90;50.60
2106;DHT22;1059;52.548;13.408;2023-06-19T13:36:22;33.10;48.00
2106;DHT22;1059;52.548;13.408;2023-06-19T13:38:52;33.30;48.10
2106;DHT22;1059;52.548;13.408;2023-06-19T13:41:19;33.50;48.70
2106;DHT22;1059;52.548;13.408;2023-06-19T13:43:52;33.50;47.20
2106;DHT22;1059;52.548;13.408;2023-06-19T13:46:19;33.40;43.10
2106;DHT22;1059;52.548;13.408;2023-06-19T13:48:48;33.30;44.20
2106;DHT22;1059;52.548;13.408;2023-06-19T13:51:16;33.00;44.50
2106;DHT22;1059;52.548;13.408;2023-06-19T13:53:46;33.00;43.80
2106;DHT22;1059;52.548;13.408;2023-06-19T13:56:13;33.00;44.80
2106;DHT22;1059;52.548;13.408;2023-06-19T13:58:40;33.20;45.00
2106;DHT22;1059;52.548;13.408;2023-06-19T14:01:07;33.60;45.60
2106;DHT22;1059;52.548;13.408;2023-06-19T14:03:36;33.90;43.50
2106;DHT22;1059;52.548;13.408;2023-06-19T14:06:05;33.90;42.00
2106;DHT22;1059;52.548;13.408;2023-06-19T14:08:32;34.00;42.20
2106;DHT22;1059;52.548;13.408;2023-06-19T14:10:59;34.20;42.70
2106;DHT22;1059;52.548;13.408;2023-06-19T14:13:26;34.30;42.00
2106;DHT22;1059;52.548;13.408;2023-06-19T14:15:53;34.30;41.60
2106;DHT22;1059;52.548;13.408;2023-06-19T14:18:20;34.10;40.10
2106;DHT22;1059;52.548;13.408;2023-06-19T14:20:47;33.90;41.10
2106;DHT22;1059;52.548;13.408;2023-06-19T14:23:15;33.70;42.00
2106;DHT22;1059;52.548;13.408;2023-06-19T14:25:42;33.50;42.00
2106;DHT22;1059;52.548;13.408;2023-06-19T14:28:09;33.40;42.20
2106;DHT22;1059;52.548;13.408;2023-06-19T14:30:36;33.30;42.00
2106;DHT22;1059;52.548;13.408;2023-06-19T14:33:03;33.20;42.30
2106;DHT22;1059;52.548;13.408;2023-06-19T14:35:35;33.10;43.30
2106;DHT22;1059;52.548;13.408;2023-06-19T14:38:02;32.70;41.70
2106;DHT22;1059;52.548;13.408;2023-06-19T14:40:30;32.50;43.10
2106;DHT22;1059;52.548;13.408;2023-06-19T14:42:57;32.30;43.80
2106;DHT22;1059;52.548;13.408;2023-06-19T14:45:24;32.20;43.20
2106;DHT22;1059;52.548;13.408;2023-06-19T14:47:51;32.30;42.90
2106;DHT22;1059;52.548;13.408;2023-06-19T14:50:18;32.40;43.70
2106;DHT22;1059;52.548;13.408;2023-06-19T14:52:45;32.70;43.80
2106;DHT22;1059;52.548;13.408;2023-06-19T14:55:12;33.10;45.10
2106;DHT22;1059;52.548;13.408;2023-06-19T14:57:40;33.50;44.20
2106;DHT22;1059;52.548;13.408;2023-06-19T15:00:08;33.70;44.00
2106;DHT22;1059;52.548;13.408;2023-06-19T15:02:35;33.90;43.20
2106;DHT22;1059;52.548;13.408;2023-06-19T15:05:05;34.20;42.80
2106;DHT22;1059;52.548;13.408;2023-06-19T15:07:32;34.40;42.30
2106;DHT22;1059;52.548;13.408;2023-06-19T15:09:59;34.30;41.30
2106;DHT22;1059;52.548;13.408;2023-06-19T15:12:26;33.90;40.80
2106;DHT22;1059;52.548;13.408;2023-06-19T15:14:55;33.70;41.50
2106;DHT22;1059;52.548;13.408;2023-06-19T15:17:22;33.40;41.20
2106;DHT22;1059;52.548;13.408;2023-06-19T15:19:49;33.30;42.10
2106;DHT22;1059;52.548;13.408;2023-06-19T15:22:16;33.00;40.90
2106;DHT22;1059;52.548;13.408;2023-06-19T15:24:43;32.70;42.30
2106;DHT22;1059;52.548;13.408;2023-06-19T15:27:09;32.30;44.00
2106;DHT22;1059;52.548;13.408;2023-06-19T15:29:37;31.90;44.30
2106;DHT22;1059;52.548;13.408;2023-06-19T15:32:06;31.60;43.60
2106;DHT22;1059;52.548;13.408;2023-06-19T15:34:33;31.40;44.50
2106;DHT22;1059;52.548;13.408;2023-06-19T15:37:05;31.20;45.20
2106;DHT22;1059;52.548;13.408;2023-06-19T15:39:32;31.00;45.00
2106;DHT22;1059;52.548;13.408;2023-06-19T15:41:59;30.80;45.90
2106;DHT22;1059;52.548;13.408;2023-06-19T15:44:29;30.70;46.60
2106;DHT22;1059;52.548;13.408;2023-06-19T15:46:56;30.60;47.30
2106;DHT22;1059;52.548;13.408;2023-06-19T15:49:24;30.40;47.30